createdAt,value
2019-04-29T00:01:26.872Z,73.90
2019-04-29T00:03:55.897Z,73.30
2019-04-29T00:06:24.930Z,71.80
2019-04-29T00:08:53.902Z,71.20
2019-04-29T00:11:22.930Z,69.80
2019-04-29T00:13:51.930Z,69.50
2019-04-29T00:16:37.986Z,70.60
2019-04-29T00:19:11.370Z,71.30
2019-04-29T00:21:40.713Z,71.60
2019-04-29T00:24:10.012Z,71.80
2019-04-29T00:26:39.123Z,72.50
2019-04-29T00:29:08.067Z,73.20
2019-04-29T00:31:37.414Z,74.00
2019-04-29T00:34:06.724Z,73.30
2019-04-29T00:36:43.482Z,73.00
2019-04-29T00:39:29.932Z,73.20
2019-04-29T00:42:00.778Z,73.70
2019-04-29T00:44:29.733Z,73.60
2019-04-29T00:46:58.675Z,73.30
2019-04-29T00:49:27.641Z,73.50
2019-04-29T00:51:56.599Z,73.70
2019-04-29T00:54:27.255Z,73.10
2019-04-29T00:56:56.652Z,74.20
2019-04-29T00:59:25.607Z,73.40
2019-04-29T01:01:54.710Z,73.30
2019-04-29T01:04:23.935Z,73.80
2019-04-29T01:06:52.946Z,73.80
2019-04-29T01:09:21.987Z,73.70
2019-04-29T01:11:51.081Z,73.60
2019-04-29T01:14:20.047Z,73.90
2019-04-29T01:16:49.330Z,73.90
2019-04-29T01:19:18.323Z,74.00
2019-04-29T01:21:47.279Z,73.70
2019-04-29T01:24:16.229Z,72.90
2019-04-29T01:26:55.907Z,72.20
2019-04-29T01:29:26.575Z,71.90
2019-04-29T01:31:55.952Z,72.00
2019-04-29T01:34:26.558Z,72.50
2019-04-29T01:36:55.560Z,73.00
2019-04-29T01:39:26.594Z,73.30
2019-04-29T01:42:09.209Z,73.60
2019-04-29T01:44:38.231Z,74.10
2019-04-29T01:47:07.187Z,75.20
2019-04-29T01:49:36.160Z,75.00
2019-04-29T01:52:05.254Z,75.20
2019-04-29T01:54:34.260Z,76.10
2019-04-29T01:57:03.214Z,77.00
2019-04-29T01:59:32.160Z,75.20
2019-04-29T02:02:01.212Z,74.30
2019-04-29T02:04:30.164Z,74.30
2019-04-29T02:06:59.151Z,73.00
2019-04-29T02:09:36.101Z,73.50
2019-04-29T02:12:05.245Z,73.60
2019-04-29T02:14:34.193Z,73.90
2019-04-29T02:17:03.149Z,74.10
2019-04-29T02:19:32.118Z,74.80
2019-04-29T02:22:08.486Z,74.60
2019-04-29T02:24:39.304Z,74.70
2019-04-29T02:27:08.258Z,75.90
2019-04-29T02:29:37.286Z,75.60
2019-04-29T02:32:06.580Z,75.40
2019-04-29T02:34:35.537Z,74.70
2019-04-29T02:37:06.134Z,74.20
2019-04-29T02:39:39.692Z,73.90
2019-04-29T02:42:26.231Z,74.10
2019-04-29T02:44:56.309Z,74.20
2019-04-29T02:47:25.258Z,74.30
2019-04-29T02:49:54.252Z,73.70
2019-04-29T02:52:23.218Z,72.90
2019-04-29T02:54:54.274Z,72.20
2019-04-29T02:57:24.936Z,72.40
2019-04-29T02:59:58.482Z,73.00
2019-04-29T03:02:28.451Z,73.10
2019-04-29T03:05:17.474Z,73.20
2019-04-29T03:07:46.590Z,73.00
2019-04-29T03:10:16.173Z,72.00
2019-04-29T03:12:45.476Z,71.60
2019-04-29T03:15:17.589Z,71.40
2019-04-29T03:17:46.710Z,71.40
2019-04-29T03:20:17.742Z,71.60
2019-04-29T03:22:48.407Z,72.70
2019-04-29T03:25:17.404Z,72.90
2019-04-29T03:27:46.443Z,73.80
2019-04-29T03:30:15.794Z,73.10
2019-04-29T03:32:44.844Z,71.70
2019-04-29T03:35:13.942Z,71.90
2019-04-29T03:37:42.944Z,72.80
2019-04-29T03:40:12.326Z,73.30
2019-04-29T03:42:41.372Z,73.70
2019-04-29T03:45:10.410Z,72.70
2019-04-29T03:47:39.456Z,72.10
2019-04-29T03:50:08.582Z,72.70
2019-04-29T03:52:37.613Z,73.40
2019-04-29T03:55:06.713Z,73.60
2019-04-29T03:57:37.034Z,73.40
2019-04-29T04:00:08.066Z,73.70
2019-04-29T04:02:44.886Z,73.70
2019-04-29T04:05:31.766Z,74.20
2019-04-29T04:08:18.870Z,74.50
2019-04-29T04:10:48.231Z,73.90
2019-04-29T04:13:17.558Z,73.80
2019-04-29T04:15:46.701Z,73.60
2019-04-29T04:18:20.376Z,73.80
2019-04-29T04:20:49.437Z,73.40
2019-04-29T04:23:18.397Z,73.30
2019-04-29T04:25:47.372Z,73.20
2019-04-29T04:28:16.340Z,73.60
2019-04-29T04:30:45.761Z,74.20
2019-04-29T04:33:14.758Z,73.80
2019-04-29T04:35:43.994Z,73.50
2019-04-29T04:38:13.285Z,72.80
2019-04-29T04:40:46.987Z,71.90
2019-04-29T04:43:16.039Z,71.80
2019-04-29T04:45:45.047Z,71.50
2019-04-29T04:48:14.023Z,71.40
2019-04-29T04:50:42.977Z,71.10
2019-04-29T04:53:12.231Z,72.10
2019-04-29T04:55:42.932Z,72.80
2019-04-29T04:58:11.971Z,73.60
2019-04-29T05:00:41.202Z,73.20
2019-04-29T05:03:10.233Z,73.30
2019-04-29T05:05:39.213Z,73.30
2019-04-29T05:08:09.880Z,74.10
2019-04-29T05:10:38.976Z,74.40
2019-04-29T05:13:08.000Z,74.20
2019-04-29T05:15:36.956Z,73.30
2019-04-29T05:18:06.006Z,71.90
2019-04-29T05:20:35.173Z,71.40
2019-04-29T05:23:04.171Z,71.30
2019-04-29T05:25:33.898Z,72.40
2019-04-29T05:28:03.086Z,73.40
2019-04-29T05:30:32.316Z,73.80
2019-04-29T05:33:01.350Z,73.80
2019-04-29T05:35:46.956Z,74.10
2019-04-29T05:38:17.900Z,74.20
2019-04-29T05:40:48.523Z,74.30
2019-04-29T05:43:21.699Z,74.10
2019-04-29T05:45:55.002Z,74.70
2019-04-29T05:48:27.666Z,75.10
2019-04-29T05:50:56.564Z,75.00
2019-04-29T05:53:27.245Z,74.50
2019-04-29T05:55:56.299Z,73.40
2019-04-29T05:58:25.433Z,73.40
2019-04-29T06:00:59.339Z,73.30
2019-04-29T06:03:28.309Z,74.20
2019-04-29T06:05:57.264Z,75.70
2019-04-29T06:08:26.252Z,75.60
2019-04-29T06:10:55.289Z,74.90
2019-04-29T06:13:27.176Z,75.40
2019-04-29T06:15:56.282Z,76.10
2019-04-29T06:18:25.243Z,75.20
2019-04-29T06:21:07.964Z,75.40
2019-04-29T06:23:24.901Z,73.50
2019-04-29T06:25:54.012Z,72.70
2019-04-29T06:28:26.347Z,72.80
2019-04-29T06:30:53.671Z,72.20
2019-04-29T06:33:24.295Z,72.00
2019-04-29T06:35:53.393Z,72.00
2019-04-29T06:38:22.439Z,72.70
2019-04-29T06:40:51.477Z,72.40
2019-04-29T06:43:20.469Z,71.50
2019-04-29T06:45:49.519Z,70.70
2019-04-29T06:48:18.485Z,70.60
2019-04-29T06:50:49.733Z,71.40
2019-04-29T06:53:21.428Z,71.60
2019-04-29T06:55:48.906Z,71.80
2019-04-29T06:58:17.978Z,71.90
2019-04-29T07:00:47.015Z,72.00
2019-04-29T07:03:16.076Z,71.60
2019-04-29T07:05:45.056Z,70.50
2019-04-29T07:08:14.292Z,69.90
2019-04-29T07:10:43.353Z,69.50
2019-04-29T07:13:12.317Z,71.20
2019-04-29T07:15:43.588Z,71.50
2019-04-29T07:18:12.021Z,70.60
2019-04-29T07:20:41.005Z,70.30
2019-04-29T07:23:10.055Z,70.00
2019-04-29T07:25:39.030Z,69.00
2019-04-29T07:28:08.074Z,68.00
2019-04-29T07:30:39.211Z,67.30
2019-04-29T07:33:08.000Z,67.90
2019-04-29T07:35:38.256Z,67.50
2019-04-29T07:38:08.580Z,68.90
2019-04-29T07:40:38.769Z,69.20
2019-04-29T07:43:09.678Z,70.20
2019-04-29T07:45:44.421Z,69.10
2019-04-29T07:48:13.751Z,68.40
2019-04-29T07:50:43.080Z,68.60
2019-04-29T07:53:12.447Z,67.70
2019-04-29T07:55:41.412Z,67.90
2019-04-29T07:58:10.363Z,68.80
2019-04-29T08:00:39.375Z,69.40
2019-04-29T08:03:08.541Z,67.10
2019-04-29T08:05:37.689Z,65.70
2019-04-29T08:08:06.854Z,63.80
2019-04-29T08:10:35.894Z,64.00
2019-04-29T08:13:05.027Z,58.30
2019-04-29T08:15:36.837Z,58.60
2019-04-29T08:18:06.825Z,57.90
2019-04-29T08:20:39.614Z,55.90
2019-04-29T08:23:06.117Z,55.60
2019-04-29T08:25:35.204Z,53.50
2019-04-29T08:28:04.315Z,51.30
2019-04-29T08:30:33.309Z,50.80
2019-04-29T08:33:02.352Z,49.30
2019-04-29T08:35:40.185Z,48.30
2019-04-29T08:38:09.333Z,46.80
2019-04-29T08:40:38.304Z,46.40
2019-04-29T08:43:15.907Z,46.90
2019-04-29T08:45:49.913Z,43.20
2019-04-29T08:48:18.951Z,45.10
2019-04-29T08:50:47.929Z,41.60
2019-04-29T08:53:16.901Z,42.40
2019-04-29T08:55:45.906Z,41.40
2019-04-29T08:58:14.943Z,40.00
2019-04-29T09:00:44.286Z,42.80
2019-04-29T09:03:13.281Z,42.50
2019-04-29T09:05:46.110Z,38.80
2019-04-29T09:08:13.679Z,38.60
2019-04-29T09:10:42.908Z,41.60
2019-04-29T09:13:12.238Z,39.50
2019-04-29T09:15:41.231Z,40.60
2019-04-29T09:18:11.285Z,40.20
2019-04-29T09:20:40.456Z,39.70
2019-04-29T09:23:11.069Z,37.30
2019-04-29T09:25:41.662Z,34.10
2019-04-29T09:28:17.652Z,35.40
2019-04-29T09:30:43.527Z,35.40
2019-04-29T09:33:13.188Z,35.20
2019-04-29T09:35:43.224Z,34.20
2019-04-29T09:38:12.192Z,35.10
2019-04-29T09:40:45.854Z,32.30
2019-04-29T09:43:26.161Z,33.50
2019-04-29T09:46:00.609Z,36.30
2019-04-29T09:48:29.548Z,34.50
2019-04-29T09:50:58.894Z,32.80
2019-04-29T09:53:27.912Z,35.40
2019-04-29T09:55:57.691Z,34.10
2019-04-29T09:58:26.733Z,35.40
2019-04-29T10:01:13.780Z,34.80
2019-04-29T10:03:42.059Z,33.70
2019-04-29T10:06:15.314Z,31.40
2019-04-29T10:08:44.366Z,33.30
2019-04-29T10:11:13.583Z,32.40
2019-04-29T10:13:42.659Z,34.60
2019-04-29T10:16:13.268Z,33.50
2019-04-29T10:18:52.602Z,36.10
2019-04-29T10:21:23.381Z,32.20
2019-04-29T10:23:52.941Z,31.60
2019-04-29T10:26:21.934Z,33.80
2019-04-29T10:28:52.544Z,36.60
2019-04-29T10:31:22.143Z,34.00
2019-04-29T10:33:55.046Z,36.30
2019-04-29T10:36:21.889Z,34.20
2019-04-29T10:38:52.821Z,35.80
2019-04-29T10:41:25.154Z,36.50
2019-04-29T10:44:14.378Z,40.40
2019-04-29T10:47:03.273Z,38.90
2019-04-29T10:49:39.330Z,36.60
2019-04-29T10:52:07.773Z,33.40
2019-04-29T10:54:37.252Z,34.40
2019-04-29T10:57:06.462Z,36.20
2019-04-29T10:59:40.794Z,36.00
2019-04-29T11:02:18.399Z,34.90
2019-04-29T11:04:49.231Z,34.60
2019-04-29T11:07:26.761Z,35.10
2019-04-29T11:09:52.686Z,38.50
2019-04-29T11:12:22.291Z,38.10
2019-04-29T11:14:51.241Z,40.20
2019-04-29T11:17:22.823Z,40.40
2019-04-29T11:19:51.794Z,42.10
2019-04-29T11:22:22.461Z,43.20
2019-04-29T11:24:53.235Z,38.20
2019-04-29T11:27:26.630Z,37.00
2019-04-29T11:29:58.480Z,34.30
2019-04-29T11:32:33.746Z,34.10
2019-04-29T11:35:04.396Z,35.60
2019-04-29T11:37:33.368Z,33.00
2019-04-29T11:40:02.328Z,33.60
2019-04-29T11:42:36.378Z,32.70
2019-04-29T11:45:04.660Z,32.80
2019-04-29T11:47:33.748Z,30.30
2019-04-29T11:50:07.677Z,31.60
2019-04-29T11:52:38.323Z,30.00
2019-04-29T11:55:08.275Z,31.30
2019-04-29T11:57:41.185Z,29.50
2019-04-29T12:00:13.754Z,29.30
2019-04-29T12:02:47.070Z,31.80
2019-04-29T12:05:17.912Z,33.00
2019-04-29T12:07:47.142Z,32.60
2019-04-29T12:10:16.178Z,35.20
2019-04-29T12:12:47.770Z,33.10
2019-04-29T12:15:17.541Z,35.30
2019-04-29T12:17:50.884Z,34.40
2019-04-29T12:20:21.914Z,31.20
2019-04-29T12:22:50.877Z,32.40
2019-04-29T12:25:22.939Z,30.70
2019-04-29T12:27:52.839Z,30.60
2019-04-29T12:30:23.117Z,29.40
2019-04-29T12:33:01.191Z,29.00
2019-04-29T12:35:30.285Z,29.80
2019-04-29T12:38:11.232Z,32.10
2019-04-29T12:40:50.231Z,31.10
2019-04-29T12:43:35.183Z,31.30
2019-04-29T12:46:20.863Z,30.60
2019-04-29T12:48:50.189Z,34.00
2019-04-29T12:51:19.178Z,33.80
2019-04-29T12:53:48.206Z,34.40
2019-04-29T12:56:19.088Z,34.70
2019-04-29T12:58:50.517Z,33.20
2019-04-29T13:01:23.133Z,31.60
2019-04-29T13:03:53.859Z,31.20
2019-04-29T13:06:38.290Z,32.20
2019-04-29T13:08:57.007Z,31.70
2019-04-29T13:11:37.493Z,35.50
2019-04-29T13:14:01.692Z,30.70
2019-04-29T13:16:33.190Z,32.90
2019-04-29T13:19:12.415Z,29.20
2019-04-29T13:21:40.410Z,29.00
2019-04-29T13:24:22.384Z,30.90
2019-04-29T13:26:42.905Z,31.10
2019-04-29T13:29:25.856Z,35.80
2019-04-29T13:31:42.253Z,30.00
2019-04-29T13:34:23.484Z,34.10
2019-04-29T13:36:43.677Z,33.10
2019-04-29T13:39:12.754Z,30.40
2019-04-29T13:41:56.380Z,32.80
2019-04-29T13:44:12.407Z,30.00
2019-04-29T13:46:54.060Z,31.50
2019-04-29T13:49:27.287Z,32.30
2019-04-29T13:51:57.966Z,29.90
2019-04-29T13:54:26.980Z,32.10
2019-04-29T13:57:01.140Z,35.00
2019-04-29T13:59:34.859Z,37.00
2019-04-29T14:02:17.555Z,34.90
2019-04-29T14:04:48.159Z,34.30
2019-04-29T14:07:18.164Z,33.40
2019-04-29T14:09:47.986Z,34.40
2019-04-29T14:12:47.160Z,33.20
2019-04-29T14:14:47.716Z,32.90
2019-04-29T14:17:25.818Z,31.90
2019-04-29T14:19:47.483Z,31.70
2019-04-29T14:22:22.448Z,32.90
2019-04-29T14:24:47.176Z,31.50
2019-04-29T14:27:24.482Z,33.20
2019-04-29T14:29:46.865Z,32.70
2019-04-29T14:32:18.297Z,32.80
2019-04-29T14:35:07.090Z,35.20
2019-04-29T14:37:34.429Z,36.30
2019-04-29T14:40:07.625Z,34.00
2019-04-29T14:42:56.820Z,32.70
2019-04-29T14:45:31.977Z,34.50
2019-04-29T14:48:11.382Z,34.00
2019-04-29T14:50:41.742Z,36.30
2019-04-29T14:53:10.798Z,36.40
2019-04-29T14:55:39.809Z,38.60
2019-04-29T14:58:08.836Z,35.60
2019-04-29T15:00:51.681Z,37.80
2019-04-29T15:03:22.384Z,35.50
2019-04-29T15:05:51.397Z,35.60
2019-04-29T15:08:20.489Z,36.90
2019-04-29T15:10:51.136Z,31.70
2019-04-29T15:13:21.795Z,34.20
2019-04-29T15:16:04.693Z,34.70
2019-04-29T15:18:50.359Z,31.10
2019-04-29T15:21:32.096Z,30.80
2019-04-29T15:23:53.009Z,31.60
2019-04-29T15:26:21.975Z,34.20
2019-04-29T15:28:50.988Z,35.50
2019-04-29T15:31:24.653Z,32.90
2019-04-29T15:33:52.840Z,32.60
2019-04-29T15:36:21.892Z,31.80
2019-04-29T15:39:08.060Z,33.00
2019-04-29T15:41:29.749Z,31.70
2019-04-29T15:44:06.487Z,31.80
2019-04-29T15:46:24.050Z,32.70
2019-04-29T15:48:53.078Z,33.90
2019-04-29T15:51:22.044Z,33.80
2019-04-29T15:53:54.303Z,34.60
2019-04-29T15:56:28.685Z,35.20
2019-04-29T15:58:52.456Z,35.70
2019-04-29T16:01:27.111Z,34.40
2019-04-29T16:03:55.166Z,35.10
2019-04-29T16:06:42.553Z,37.30
2019-04-29T16:09:15.957Z,37.20
2019-04-29T16:11:49.409Z,38.80
2019-04-29T16:14:20.115Z,36.80
2019-04-29T16:16:49.153Z,37.40
2019-04-29T16:19:18.141Z,37.90
2019-04-29T16:21:47.158Z,37.10
2019-04-29T16:24:26.392Z,38.00
2019-04-29T16:26:53.251Z,37.20
2019-04-29T16:29:17.817Z,36.70
2019-04-29T16:31:46.882Z,37.30
2019-04-29T16:34:15.975Z,38.10
2019-04-29T16:36:50.086Z,38.50
2019-04-29T16:39:15.994Z,38.00
2019-04-29T16:41:58.240Z,38.80
2019-04-29T16:44:35.784Z,39.30
2019-04-29T16:46:54.294Z,38.40
2019-04-29T16:49:23.663Z,38.90
2019-04-29T16:51:53.453Z,38.70
2019-04-29T16:54:28.187Z,38.60
2019-04-29T16:56:54.132Z,38.60
2019-04-29T16:59:23.179Z,37.80
2019-04-29T17:01:52.650Z,38.20
2019-04-29T17:04:21.728Z,38.30
2019-04-29T17:07:11.280Z,37.00
2019-04-29T17:09:28.919Z,37.50
2019-04-29T17:11:59.097Z,37.40
2019-04-29T17:14:28.220Z,38.10
2019-04-29T17:16:57.209Z,39.20
2019-04-29T17:19:26.250Z,39.10
2019-04-29T17:22:23.767Z,39.40
2019-04-29T17:24:25.947Z,40.20
2019-04-29T17:26:57.107Z,40.90
2019-04-29T17:29:49.334Z,39.10
2019-04-29T17:35:05.992Z,41.10
2019-04-29T17:35:14.780Z,40.60
2019-04-29T17:37:35.210Z,41.20
2019-04-29T17:40:06.783Z,41.80
2019-04-29T17:42:37.550Z,42.50
2019-04-29T17:45:12.367Z,43.80
2019-04-29T17:47:42.509Z,44.70
2019-04-29T17:50:29.415Z,46.00
2019-04-29T17:52:49.717Z,46.40
2019-04-29T17:55:20.466Z,46.40
2019-04-29T17:57:59.874Z,47.50
2019-04-29T18:00:44.658Z,48.20
2019-04-29T18:03:15.274Z,49.20
2019-04-29T18:05:58.230Z,49.50
2019-04-29T18:08:28.864Z,49.80
2019-04-29T18:10:59.838Z,49.60
2019-04-29T18:13:30.161Z,49.80
2019-04-29T18:16:03.948Z,50.00
2019-04-29T18:18:53.498Z,50.90
2019-04-29T18:21:43.158Z,49.80
2019-04-29T18:24:11.751Z,51.10
2019-04-29T18:26:44.241Z,50.70
2019-04-29T18:29:16.065Z,50.10
2019-04-29T18:31:46.502Z,50.90
2019-04-29T18:34:15.601Z,51.60
2019-04-29T18:36:45.774Z,51.60
2019-04-29T18:39:20.034Z,51.60
2019-04-29T18:41:50.139Z,52.20
2019-04-29T18:44:19.803Z,52.20
2019-04-29T18:46:53.586Z,52.60
2019-04-29T18:49:19.514Z,52.00
2019-04-29T18:51:48.490Z,51.50
2019-04-29T18:54:17.469Z,51.40
2019-04-29T18:56:46.700Z,51.70
2019-04-29T18:59:21.037Z,51.70
2019-04-29T19:01:46.447Z,52.90
2019-04-29T19:04:19.242Z,53.50
2019-04-29T19:06:51.338Z,53.10
2019-04-29T19:09:20.758Z,53.20
2019-04-29T19:11:50.248Z,53.30
2019-04-29T19:14:20.447Z,53.80
2019-04-29T19:16:52.709Z,53.80
2019-04-29T19:19:20.738Z,54.70
2019-04-29T19:21:49.719Z,54.30
2019-04-29T19:24:19.139Z,54.80
2019-04-29T19:26:48.164Z,54.60
2019-04-29T19:29:17.235Z,55.00
2019-04-29T19:31:49.654Z,54.90
2019-04-29T19:34:18.669Z,55.00
2019-04-29T19:36:50.793Z,54.80
2019-04-29T19:39:21.853Z,54.90
2019-04-29T19:41:50.418Z,55.90
2019-04-29T19:44:20.185Z,55.00
2019-04-29T19:46:49.262Z,55.90
2019-04-29T19:49:18.298Z,56.10
2019-04-29T19:51:47.637Z,56.10
2019-04-29T19:54:23.874Z,56.60
2019-04-29T19:56:47.633Z,56.10
2019-04-29T19:59:17.710Z,56.30
2019-04-29T20:01:51.214Z,56.60
2019-04-29T20:04:38.010Z,57.00
2019-04-29T20:07:10.405Z,56.70
2019-04-29T20:09:39.369Z,57.10
2019-04-29T20:12:12.884Z,57.30
2019-04-29T20:14:39.893Z,57.10
2019-04-29T20:17:17.835Z,56.40
2019-04-29T20:19:55.042Z,57.00
2019-04-29T20:22:19.831Z,57.50
2019-04-29T20:24:50.720Z,57.50
2019-04-29T20:27:20.463Z,58.00
2019-04-29T20:29:50.144Z,59.30
2019-04-29T20:32:22.533Z,60.00
2019-04-29T20:34:50.084Z,59.80
2019-04-29T20:37:19.900Z,59.50
2019-04-29T20:39:52.115Z,59.20
2019-04-29T20:42:19.784Z,60.00
2019-04-29T20:44:49.487Z,60.60
2019-04-29T20:47:22.896Z,60.40
2019-04-29T20:49:49.497Z,61.20
2019-04-29T20:52:29.420Z,61.40
2019-04-29T20:55:02.515Z,62.60
2019-04-29T20:57:29.850Z,62.30
2019-04-29T20:59:59.028Z,62.00
2019-04-29T21:02:33.827Z,62.20
2019-04-29T21:04:58.950Z,63.00
2019-04-29T21:07:28.058Z,63.00
2019-04-29T21:10:00.015Z,64.30
2019-04-29T21:12:45.874Z,63.70
2019-04-29T21:15:33.482Z,62.80
2019-04-29T21:18:02.519Z,63.80
2019-04-29T21:20:31.516Z,65.80
2019-04-29T21:23:01.072Z,65.10
2019-04-29T21:25:30.730Z,65.70
2019-04-29T21:28:02.253Z,65.90
2019-04-29T21:30:35.496Z,66.40
2019-04-29T21:33:01.274Z,67.00
2019-04-29T21:35:40.671Z,66.10
2019-04-29T21:38:17.889Z,65.80
2019-04-29T21:40:56.087Z,65.90
2019-04-29T21:43:26.821Z,65.20
2019-04-29T21:45:55.790Z,65.70
2019-04-29T21:48:33.097Z,66.00
2019-04-29T21:50:55.883Z,66.30
2019-04-29T21:53:25.310Z,66.20
2019-04-29T21:55:55.446Z,66.00
2019-04-29T21:58:28.696Z,66.20
2019-04-29T22:00:59.241Z,66.60
2019-04-29T22:03:28.395Z,66.10
2019-04-29T22:05:58.969Z,66.10
2019-04-29T22:08:30.048Z,66.40
2019-04-29T22:11:05.090Z,66.30
2019-04-29T22:13:30.640Z,65.40
2019-04-29T22:16:00.677Z,65.90
2019-04-29T22:18:29.903Z,64.30
2019-04-29T22:20:59.046Z,65.90
2019-04-29T22:23:28.079Z,66.60
2019-04-29T22:25:57.036Z,66.50
2019-04-29T22:28:26.176Z,65.90
2019-04-29T22:30:56.219Z,65.60
2019-04-29T22:33:29.808Z,65.40
2019-04-29T22:35:56.333Z,66.50
2019-04-29T22:38:25.391Z,66.40
2019-04-29T22:40:56.023Z,66.10
2019-04-29T22:43:36.183Z,66.70
2019-04-29T22:46:09.514Z,66.10
2019-04-29T22:48:36.097Z,66.60
2019-04-29T22:51:10.005Z,67.10
2019-04-29T22:53:40.006Z,67.00
2019-04-29T22:56:09.080Z,67.00
2019-04-29T22:58:39.435Z,66.90
2019-04-29T23:01:09.514Z,66.20
2019-04-29T23:03:38.866Z,66.10
2019-04-29T23:06:08.614Z,66.30
2019-04-29T23:08:38.323Z,65.70
2019-04-29T23:11:07.545Z,65.10
2019-04-29T23:13:38.116Z,65.30
2019-04-29T23:16:07.375Z,65.10
2019-04-29T23:18:42.123Z,65.80
2019-04-29T23:21:28.051Z,66.50
2019-04-29T23:23:59.094Z,66.90
2019-04-29T23:26:28.081Z,67.40
2019-04-29T23:28:59.531Z,67.80
2019-04-29T23:31:28.340Z,68.70
2019-04-29T23:33:57.391Z,68.40
2019-04-29T23:36:26.409Z,68.90
2019-04-29T23:38:56.677Z,68.90
2019-04-29T23:41:32.833Z,68.60
2019-04-29T23:44:00.004Z,68.90
2019-04-29T23:46:29.756Z,69.40
2019-04-29T23:49:03.135Z,69.40
2019-04-29T23:51:34.288Z,69.10
2019-04-29T23:54:03.325Z,68.60
2019-04-29T23:56:31.681Z,69.20
2019-04-29T23:59:02.295Z,69.90
